Time;durP1;ratioP1;P1;durP2;ratioP2;P2;SDS_P1;SDS_P2;PMS_P1;PMS_P2;Temp;Humidity;BMP_temperature;BMP_pressure;BME280_temperature;BME280_humidity;BME280_pressure;Samples;Min_cycle;Max_cycle;Signal;HPM_P1;HPM_P2
2022/06/24 00:02:25;;;;;;;5.67;1.47;;;22.40;99.90;;;;;;7363476;19;20702;-38
2022/06/24 00:04:56;;;;;;;4.03;1.47;;;22.50;99.90;;;;;;7370970;19;20388;-39
2022/06/24 00:07:26;;;;;;;4.10;1.10;;;22.40;99.90;;;;;;7367574;19;20508;-39
2022/06/24 00:09:58;;;;;;;3.80;1.17;;;22.50;99.90;;;;;;7366638;19;20372;-44
2022/06/24 00:12:28;;;;;;;5.90;1.40;;;22.60;99.90;;;;;;7374801;19;20379;-43
2022/06/24 00:15:02;;;;;;;4.30;1.53;;;22.20;99.90;;;;;;7365550;19;20419;-43
2022/06/24 00:17:32;;;;;;;2.40;1.00;;;21.80;99.90;;;;;;7371669;19;20380;-43
2022/06/24 00:20:04;;;;;;;7.00;1.40;;;21.60;99.90;;;;;;7369386;19;20763;-43
2022/06/24 00:22:42;;;;;;;4.77;1.70;;;21.70;99.90;;;;;;7370831;19;20384;-43
2022/06/24 00:25:16;;;;;;;5.10;1.27;;;21.70;99.90;;;;;;7363043;19;21220;-44
2022/06/24 00:28:01;;;;;;;5.10;1.50;;;21.70;99.90;;;;;;7367209;19;20376;-43
2022/06/24 00:30:39;;;;;;;3.77;1.40;;;21.60;99.90;;;;;;7360087;19;20438;-44
2022/06/24 00:33:11;;;;;;;3.23;1.47;;;;;;;;;;7372845;19;20394;-43
2022/06/24 00:35:43;;;;;;;3.77;1.30;;;21.30;99.90;;;;;;7368444;19;20411;-43
2022/06/24 00:38:26;;;;;;;4.03;1.63;;;21.30;99.90;;;;;;7361732;19;21054;-45
2022/06/24 00:41:02;;;;;;;3.80;1.40;;;21.50;99.90;;;;;;7364934;19;20813;-45
2022/06/24 00:43:36;;;;;;;4.00;1.53;;;21.80;99.90;;;;;;7366418;19;20392;-44
2022/06/24 00:46:15;;;;;;;4.20;1.50;;;21.50;99.90;;;;;;7351530;19;21144;-43
2022/06/24 00:48:50;;;;;;;2.83;1.53;;;21.60;99.90;;;;;;7364101;19;20444;-44
2022/06/24 00:51:20;;;;;;;2.10;1.23;;;21.70;99.90;;;;;;7360175;19;21262;-44
2022/06/24 00:53:51;;;;;;;4.07;1.40;;;21.70;99.90;;;;;;7369104;19;20381;-45
2022/06/24 00:56:25;;;;;;;3.27;1.77;;;21.70;99.90;;;;;;7374123;19;20405;-44
2022/06/24 00:58:55;;;;;;;4.83;1.77;;;21.50;99.90;;;;;;7378093;19;20372;-45
2022/06/24 01:01:31;;;;;;;4.17;1.80;;;21.20;99.90;;;;;;7354288;19;21144;-38
2022/06/24 01:04:02;;;;;;;4.60;2.00;;;21.00;99.90;;;;;;7361939;19;20372;-38
2022/06/24 01:06:32;;;;;;;2.67;1.33;;;21.30;99.90;;;;;;7364598;19;21090;-39
2022/06/24 01:09:02;;;;;;;5.00;1.73;;;21.20;99.90;;;;;;7358605;19;20436;-38
2022/06/24 01:11:36;;;;;;;7.40;2.17;;;21.20;99.90;;;;;;7366064;19;20376;-44
2022/06/24 01:14:06;;;;;;;8.20;1.93;;;21.10;99.90;;;;;;7354152;19;20411;-45
2022/06/24 01:16:37;;;;;;;6.63;2.27;;;21.40;99.90;;;;;;7371624;19;20383;-45
2022/06/24 01:19:10;;;;;;;2.53;1.53;;;21.60;99.90;;;;;;7348506;19;20959;-44
2022/06/24 01:21:47;;;;;;;8.57;1.70;;;21.70;99.90;;;;;;7355086;19;20395;-43
2022/06/24 01:24:18;;;;;;;4.17;2.03;;;21.70;99.90;;;;;;7352358;19;20901;-42
2022/06/24 01:26:51;;;;;;;5.40;2.40;;;21.50;99.90;;;;;;7369714;19;20919;-44
2022/06/24 01:29:23;;;;;;;4.73;1.90;;;21.60;99.90;;;;;;7357651;19;20471;-44
2022/06/24 01:31:54;;;;;;;8.37;1.83;;;21.40;99.90;;;;;;7362592;19;20416;-42
2022/06/24 01:34:26;;;;;;;5.40;1.67;;;21.20;99.90;;;;;;7367588;19;21084;-43
2022/06/24 01:36:58;;;;;;;7.17;1.80;;;21.00;99.90;;;;;;7365738;19;20440;-42
2022/06/24 01:39:29;;;;;;;3.63;1.93;;;20.90;99.90;;;;;;7365956;19;20404;-44
2022/06/24 01:41:59;;;;;;;6.67;2.10;;;20.80;99.90;;;;;;7366836;19;20415;-42
2022/06/24 01:44:31;;;;;;;5.60;2.20;;;20.80;99.90;;;;;;7364517;19;20364;-43
2022/06/24 01:47:01;;;;;;;6.70;1.80;;;21.30;99.90;;;;;;7366358;19;20825;-43
2022/06/24 01:49:30;;;;;;;6.83;1.60;;;21.70;99.90;;;;;;7365148;19;20376;-43
2022/06/24 01:52:12;;;;;;;3.13;1.63;;;21.80;99.90;;;;;;7343700;19;20375;-39
2022/06/24 01:54:41;;;;;;;3.20;1.70;;;21.70;99.90;;;;;;7328675;19;20357;-39
2022/06/24 01:57:11;;;;;;;4.73;2.00;;;21.70;99.90;;;;;;7369319;19;20802;-39
2022/06/24 01:59:43;;;;;;;2.70;1.53;;;21.70;99.90;;;;;;7366814;19;21071;-38
2022/06/24 02:02:12;;;;;;;4.03;1.97;;;21.70;99.90;;;;;;7360667;19;20396;-38
2022/06/24 02:04:42;;;;;;;3.20;1.87;;;21.90;99.90;;;;;;7351769;19;20518;-39
2022/06/24 02:07:14;;;;;;;3.73;1.70;;;22.10;99.90;;;;;;7374993;19;20405;-39
2022/06/24 02:15:08;;;;;;;2.90;1.60;;;22.20;99.90;;;;;;7365158;19;20447;-39
2022/06/24 02:17:38;;;;;;;7.37;2.13;;;22.20;99.90;;;;;;7370474;19;20377;-39
2022/06/24 02:20:11;;;;;;;7.57;1.70;;;22.00;99.90;;;;;;7358580;19;20400;-40
2022/06/24 02:22:43;;;;;;;6.43;2.53;;;22.00;99.90;;;;;;7366129;19;20929;-40
2022/06/24 02:25:14;;;;;;;4.53;2.67;;;22.00;99.90;;;;;;7357924;19;20396;-40
2022/06/24 02:27:43;;;;;;;5.53;1.80;;;22.00;99.90;;;;;;7369570;19;20376;-39
2022/06/24 02:30:14;;;;;;;3.87;2.30;;;21.70;99.90;;;;;;7359697;19;20411;-38
2022/06/24 02:32:43;;;;;;;3.60;1.77;;;21.60;99.90;;;;;;7365251;19;21112;-39
2022/06/24 02:35:13;;;;;;;4.70;2.23;;;21.40;99.90;;;;;;7364291;19;20368;-39
2022/06/24 02:37:45;;;;;;;4.27;2.27;;;21.50;99.90;;;;;;7368419;19;20415;-39
2022/06/24 02:42:58;;;;;;;3.43;2.10;;;21.30;99.90;;;;;;7362340;19;20720;-40
2022/06/24 02:45:27;;;;;;;4.17;2.33;;;21.20;99.90;;;;;;7366045;19;21506;-39
2022/06/24 02:47:59;;;;;;;4.43;2.30;;;21.20;99.90;;;;;;7359144;19;20507;-39
2022/06/24 02:50:28;;;;;;;5.90;2.70;;;21.20;99.90;;;;;;7366192;19;21328;-39
2022/06/24 02:53:00;;;;;;;6.13;1.97;;;21.20;99.90;;;;;;7368026;19;20970;-39
2022/06/24 02:55:32;;;;;;;5.17;1.93;;;21.40;99.90;;;;;;7367390;19;20401;-39
2022/06/24 02:58:01;;;;;;;4.13;1.87;;;21.40;99.90;;;;;;7367836;19;20379;-40
2022/06/24 03:00:31;;;;;;;4.07;1.97;;;21.50;99.90;;;;;;7357720;19;20809;-40
2022/06/24 03:03:01;;;;;;;4.83;2.20;;;21.30;99.90;;;;;;7347438;19;21148;-44
2022/06/24 03:05:31;;;;;;;7.53;2.27;;;21.30;99.90;;;;;;7361306;19;20416;-45
2022/06/24 03:08:03;;;;;;;3.43;1.60;;;21.40;99.90;;;;;;7357749;19;20967;-43
2022/06/24 03:10:33;;;;;;;3.97;2.10;;;21.40;99.90;;;;;;7366753;19;20384;-44
2022/06/24 03:13:05;;;;;;;2.70;2.30;;;21.40;99.90;;;;;;7364809;19;20421;-44
2022/06/24 03:15:35;;;;;;;7.00;2.20;;;21.40;99.90;;;;;;7360641;19;20514;-43
2022/06/24 03:18:04;;;;;;;3.40;1.80;;;21.50;99.90;;;;;;7362543;19;20438;-43
2022/06/24 03:20:36;;;;;;;4.70;3.20;;;21.40;99.90;;;;;;7368503;19;20387;-44
2022/06/24 03:23:08;;;;;;;5.30;1.87;;;21.40;99.90;;;;;;7368332;19;20375;-44
2022/06/24 03:25:38;;;;;;;4.50;2.00;;;21.50;99.90;;;;;;7363185;19;22672;-44
2022/06/24 03:28:08;;;;;;;3.37;1.97;;;21.40;99.90;;;;;;7354868;19;20372;-43
2022/06/24 03:30:38;;;;;;;4.13;1.90;;;21.50;99.90;;;;;;7356702;19;20920;-44
2022/06/24 03:33:08;;;;;;;5.90;2.03;;;21.50;99.90;;;;;;7362260;19;20488;-43
2022/06/24 03:35:37;;;;;;;4.07;2.20;;;21.50;99.90;;;;;;7369202;19;20707;-44
2022/06/24 03:38:09;;;;;;;4.30;2.10;;;21.50;99.90;;;;;;7370257;19;20383;-43
2022/06/24 03:40:39;;;;;;;2.70;1.50;;;21.60;99.90;;;;;;7374407;19;20383;-43
2022/06/24 03:43:09;;;;;;;2.70;1.97;;;21.30;99.90;;;;;;7367570;19;20376;-43
2022/06/24 03:45:38;;;;;;;4.20;2.13;;;21.10;99.90;;;;;;7374078;19;20823;-44
2022/06/24 03:48:10;;;;;;;3.80;1.70;;;21.20;99.90;;;;;;7371060;19;20380;-43
2022/06/24 03:50:40;;;;;;;3.63;2.00;;;21.00;99.90;;;;;;7370988;19;20383;-42
2022/06/24 03:53:12;;;;;;;3.73;1.93;;;20.80;99.90;;;;;;7370897;19;20444;-42
2022/06/24 03:55:41;;;;;;;5.43;1.87;;;20.70;99.90;;;;;;7373400;19;20372;-42
2022/06/24 03:58:14;;;;;;;3.93;1.90;;;20.80;99.90;;;;;;7371285;19;20376;-39
2022/06/24 04:00:43;;;;;;;7.70;2.00;;;21.00;99.90;;;;;;7367696;19;20776;-39
2022/06/24 04:03:15;;;;;;;5.50;2.30;;;21.00;99.90;;;;;;7368648;19;20388;-39
2022/06/24 04:05:45;;;;;;;4.93;2.33;;;20.90;99.90;;;;;;7356210;19;20404;-39
2022/06/24 04:08:19;;;;;;;4.53;2.10;;;20.90;99.90;;;;;;7366465;19;20403;-39
2022/06/24 04:10:51;;;;;;;6.20;2.13;;;20.70;99.90;;;;;;7352673;19;21221;-38
2022/06/24 04:13:20;;;;;;;4.83;2.30;;;20.50;99.90;;;;;;7369554;19;20364;-39
2022/06/24 04:15:51;;;;;;;8.20;2.40;;;20.20;99.90;;;;;;7363805;19;20384;-39
2022/06/24 04:18:20;;;;;;;4.50;2.57;;;20.10;99.90;;;;;;7370534;19;20408;-39
2022/06/24 04:20:50;;;;;;;7.87;2.10;;;20.20;99.90;;;;;;7361274;19;20396;-39
2022/06/24 04:23:22;;;;;;;8.37;2.53;;;20.30;99.90;;;;;;7376448;19;20874;-39
2022/06/24 04:25:52;;;;;;;4.83;2.37;;;20.40;99.90;;;;;;7364440;19;20396;-39
2022/06/24 04:28:22;;;;;;;4.47;2.20;;;20.40;99.90;;;;;;7351264;19;20932;-38
2022/06/24 04:30:52;;;;;;;7.17;2.27;;;20.20;99.90;;;;;;7359676;19;20502;-38
2022/06/24 04:33:21;;;;;;;3.83;2.20;;;19.90;99.90;;;;;;7366287;19;20432;-39
2022/06/24 04:35:51;;;;;;;5.40;2.23;;;19.80;99.90;;;;;;7364239;19;20382;-38
2022/06/24 04:38:23;;;;;;;7.83;2.47;;;19.70;99.90;;;;;;7362526;19;20376;-39
2022/06/24 04:40:53;;;;;;;3.70;2.30;;;19.90;99.90;;;;;;7352125;19;21077;-39
2022/06/24 04:43:22;;;;;;;6.03;2.90;;;20.00;99.90;;;;;;7359387;19;20423;-40
2022/06/24 04:45:55;;;;;;;7.43;3.00;;;19.90;99.90;;;;;;7371106;19;20376;-40
2022/06/24 04:48:25;;;;;;;8.90;2.63;;;19.90;99.90;;;;;;7363752;19;20368;-40
2022/06/24 04:50:57;;;;;;;2.90;2.10;;;;;;;;;;7366660;19;20383;-40
2022/06/24 04:53:29;;;;;;;6.43;2.60;;;20.00;99.90;;;;;;7353716;19;20817;-39
2022/06/24 04:55:59;;;;;;;5.20;2.60;;;20.00;99.90;;;;;;7357249;19;21119;-40
2022/06/24 04:58:28;;;;;;;3.17;1.90;;;20.00;99.90;;;;;;7333370;19;21335;-40
2022/06/24 05:00:58;;;;;;;5.77;2.47;;;20.10;99.90;;;;;;7361699;19;21108;-44
2022/06/24 05:03:27;;;;;;;9.53;2.93;;;20.10;99.90;;;;;;7355942;19;20850;-44
2022/06/24 05:05:57;;;;;;;5.90;2.37;;;20.10;99.90;;;;;;7355234;19;20484;-44
2022/06/24 05:08:29;;;;;;;7.67;2.80;;;20.20;99.90;;;;;;7350757;19;20388;-45
2022/06/24 05:10:58;;;;;;;5.57;2.53;;;20.40;99.90;;;;;;7369604;19;20391;-45
2022/06/24 05:13:31;;;;;;;6.60;2.50;;;20.40;99.90;;;;;;7359613;19;20871;-45
2022/06/24 05:16:00;;;;;;;6.47;2.43;;;20.30;99.90;;;;;;7349990;19;20380;-45
2022/06/24 05:18:30;;;;;;;7.93;3.03;;;20.20;99.90;;;;;;7345267;19;20368;-45
2022/06/24 05:20:59;;;;;;;6.73;2.90;;;20.20;99.90;;;;;;7350692;19;20387;-45
2022/06/24 05:23:31;;;;;;;10.10;2.43;;;20.50;99.90;;;;;;7196137;19;3097694;-45
2022/06/24 05:26:01;;;;;;;7.80;3.63;;;20.70;99.90;;;;;;7363316;19;20386;-45
2022/06/24 05:28:30;;;;;;;6.87;3.30;;;21.00;99.90;;;;;;7363672;19;20376;-41
2022/06/24 05:31:00;;;;;;;3.90;2.13;;;21.30;99.90;;;;;;7357479;19;20397;-45
2022/06/24 05:33:30;;;;;;;6.93;2.90;;;21.20;99.90;;;;;;7351764;19;20673;-44
2022/06/24 05:36:00;;;;;;;4.27;1.77;;;21.50;99.90;;;;;;7345012;19;20866;-44
2022/06/24 05:38:34;;;;;;;8.03;2.93;;;21.50;99.90;;;;;;7358409;19;21414;-44
2022/06/24 05:41:05;;;;;;;3.70;2.80;;;21.10;99.90;;;;;;7367453;19;20372;-44
2022/06/24 05:43:34;;;;;;;3.87;2.00;;;21.20;99.90;;;;;;7366195;19;20495;-44
2022/06/24 05:46:04;;;;;;;4.60;2.57;;;21.50;99.90;;;;;;7368077;19;20732;-44
2022/06/24 05:48:33;;;;;;;5.43;2.50;;;21.90;99.90;;;;;;7364308;19;20419;-44
2022/06/24 05:51:09;;;;;;;4.63;2.57;;;21.70;99.90;;;;;;7368304;19;20408;-46
2022/06/24 05:56:24;;;;;;;8.03;4.10;;;21.80;99.90;;;;;;7369206;19;20380;-45
2022/06/24 05:58:53;;;;;;;6.33;2.97;;;22.10;99.90;;;;;;7374157;19;20484;-45
2022/06/24 06:01:25;;;;;;;5.23;2.27;;;22.10;99.90;;;;;;7355722;19;20364;-45
2022/06/24 06:03:55;;;;;;;4.63;2.50;;;22.10;99.90;;;;;;7356986;19;20376;-45
2022/06/24 06:06:25;;;;;;;4.80;2.60;;;22.10;99.90;;;;;;7357944;19;21745;-44
2022/06/24 06:08:57;;;;;;;9.67;5.07;;;22.20;99.90;;;;;;7360439;19;20390;-45
2022/06/24 06:11:28;;;;;;;7.70;3.80;;;22.60;99.90;;;;;;7366262;19;20439;-41
2022/06/24 06:14:00;;;;;;;7.97;2.93;;;22.80;99.90;;;;;;7357735;19;20977;-42
2022/06/24 06:16:30;;;;;;;11.00;2.80;;;22.90;99.90;;;;;;7354665;19;20987;-41
2022/06/24 06:18:59;;;;;;;4.87;2.50;;;22.50;99.90;;;;;;7362065;19;20369;-45
2022/06/24 06:21:29;;;;;;;9.10;3.83;;;22.60;99.90;;;;;;7375104;19;20955;-44
2022/06/24 06:24:03;;;;;;;8.57;2.90;;;22.90;99.90;;;;;;7374231;19;21133;-46
2022/06/24 06:26:33;;;;;;;6.43;2.93;;;23.10;99.90;;;;;;7375762;19;20389;-45
2022/06/24 06:29:04;;;;;;;4.37;2.10;;;23.40;99.90;;;;;;7372619;19;20416;-45
2022/06/24 06:31:34;;;;;;;4.20;2.27;;;23.70;99.90;;;;;;7371924;19;20376;-46
2022/06/24 06:34:03;;;;;;;6.10;3.00;;;23.80;99.90;;;;;;7374608;19;20395;-45
2022/06/24 06:36:37;;;;;;;8.70;2.97;;;23.90;99.90;;;;;;7377746;19;20784;-45
2022/06/24 06:39:09;;;;;;;6.57;2.93;;;24.00;99.90;;;;;;7365732;19;20468;-46
2022/06/24 06:41:38;;;;;;;7.00;2.50;;;24.10;99.60;;;;;;7366543;19;20409;-46
2022/06/24 06:44:08;;;;;;;4.43;2.90;;;24.20;97.70;;;;;;7370718;19;20419;-45
2022/06/24 06:46:37;;;;;;;6.93;2.87;;;24.30;98.20;;;;;;7374680;19;21045;-44
2022/06/24 06:49:09;;;;;;;10.20;2.40;;;24.40;97.50;;;;;;7373603;19;20417;-46
2022/06/24 06:51:39;;;;;;;5.43;2.60;;;24.70;96.60;;;;;;7375641;19;20405;-45
2022/06/24 06:54:14;;;;;;;4.87;2.27;;;24.70;96.20;;;;;;7375439;19;20453;-44
2022/06/24 06:56:43;;;;;;;7.63;5.10;;;24.70;94.70;;;;;;7367263;19;20718;-44
2022/06/24 06:59:13;;;;;;;2.80;2.10;;;24.80;95.00;;;;;;7369156;19;20376;-45
2022/06/24 07:01:42;;;;;;;3.97;2.23;;;24.90;94.60;;;;;;7373592;19;20372;-45
2022/06/24 07:04:12;;;;;;;4.07;2.57;;;24.90;93.80;;;;;;7378418;19;20437;-45
2022/06/24 07:06:41;;;;;;;2.73;1.80;;;24.80;93.30;;;;;;7369957;19;20375;-44
2022/06/24 07:09:15;;;;;;;8.57;2.90;;;24.50;93.80;;;;;;7375174;19;20372;-45
2022/06/24 07:11:45;;;;;;;5.73;2.70;;;24.70;93.40;;;;;;7367680;19;20383;-44
2022/06/24 07:14:14;;;;;;;5.93;2.37;;;24.50;93.70;;;;;;7372597;19;20380;-45
2022/06/24 07:16:44;;;;;;;6.50;2.20;;;24.70;93.10;;;;;;7374383;19;20374;-45
2022/06/24 07:19:13;;;;;;;4.90;2.50;;;24.70;91.70;;;;;;7370686;19;20969;-45
2022/06/24 07:21:43;;;;;;;5.30;2.20;;;24.80;91.50;;;;;;7373939;19;20395;-46
2022/06/24 07:24:15;;;;;;;5.43;2.33;;;25.00;90.70;;;;;;7369607;19;21080;-45
2022/06/24 07:26:44;;;;;;;5.93;2.40;;;25.10;91.30;;;;;;7368844;19;20387;-46
2022/06/24 07:29:16;;;;;;;2.70;1.83;;;25.20;90.10;;;;;;7373291;19;20376;-44
2022/06/24 07:31:47;;;;;;;3.43;2.30;;;25.10;89.80;;;;;;7372018;19;21006;-45
2022/06/24 07:34:17;;;;;;;14.00;2.77;;;25.50;88.40;;;;;;7371184;19;20479;-45
2022/06/24 07:36:46;;;;;;;8.40;2.13;;;25.70;83.30;;;;;;7368820;19;20479;-45
2022/06/24 07:39:18;;;;;;;6.03;2.00;;;25.90;84.10;;;;;;7370042;19;21051;-45
2022/06/24 07:41:48;;;;;;;4.17;2.00;;;25.70;83.40;;;;;;7374589;19;21270;-46
2022/06/24 07:44:18;;;;;;;4.73;1.97;;;25.80;83.30;;;;;;7374274;19;21004;-45
2022/06/24 07:46:47;;;;;;;6.90;2.93;;;25.90;81.00;;;;;;7367013;19;20480;-46
2022/06/24 07:49:17;;;;;;;3.60;1.93;;;25.80;81.10;;;;;;7372015;19;20481;-46
2022/06/24 07:51:47;;;;;;;5.53;1.90;;;26.00;80.80;;;;;;7371413;19;20405;-46
2022/06/24 07:54:19;;;;;;;4.00;2.23;;;25.90;81.50;;;;;;7367996;19;20419;-45
2022/06/24 07:56:58;;;;;;;3.00;2.40;;;26.00;79.60;;;;;;7373153;19;20464;-45
2022/06/24 07:59:28;;;;;;;4.23;2.13;;;25.90;79.40;;;;;;7370823;19;20451;-46
2022/06/24 08:02:00;;;;;;;4.53;2.53;;;26.10;77.80;;;;;;7372111;19;20388;-45
2022/06/24 08:04:32;;;;;;;6.33;2.40;;;26.40;77.00;;;;;;7372656;19;20423;-45
2022/06/24 08:07:04;;;;;;;4.40;2.07;;;26.60;74.60;;;;;;7365584;19;20380;-44
2022/06/24 08:09:37;;;;;;;3.40;2.00;;;26.90;72.90;;;;;;7372253;19;20428;-46
2022/06/24 08:12:08;;;;;;;2.70;1.73;;;27.10;71.10;;;;;;7369806;19;20484;-45
2022/06/24 08:14:37;;;;;;;2.30;1.73;;;26.60;71.20;;;;;;7373645;19;20416;-46
2022/06/24 08:17:07;;;;;;;6.40;2.13;;;26.80;69.60;;;;;;7375748;19;20383;-46
2022/06/24 08:19:37;;;;;;;3.87;2.13;;;27.10;70.00;;;;;;7380630;19;20364;-48
2022/06/24 08:22:07;;;;;;;3.73;1.83;;;27.40;67.60;;;;;;7348440;19;20913;-43
2022/06/24 08:24:40;;;;;;;6.50;3.17;;;27.60;65.80;;;;;;7360939;19;20411;-45
2022/06/24 08:27:10;;;;;;;6.00;2.67;;;27.70;64.10;;;;;;7360864;19;20416;-39
2022/06/24 08:29:39;;;;;;;3.07;1.47;;;27.70;64.00;;;;;;7356623;19;20373;-40
2022/06/24 08:32:11;;;;;;;5.47;1.60;;;27.60;59.50;;;;;;7363780;19;20383;-41
2022/06/24 08:34:40;;;;;;;4.30;2.00;;;27.10;61.70;;;;;;7371893;19;20376;-40
2022/06/24 08:37:10;;;;;;;7.13;1.60;;;27.00;65.40;;;;;;7372397;19;20443;-40
2022/06/24 08:39:42;;;;;;;5.03;1.70;;;27.00;65.00;;;;;;7375316;19;20427;-40
2022/06/24 08:42:15;;;;;;;2.43;1.30;;;26.70;64.20;;;;;;7378211;19;20395;-44
2022/06/24 08:44:44;;;;;;;4.90;1.83;;;26.80;66.50;;;;;;7377395;19;20376;-44
2022/06/24 08:47:17;;;;;;;4.20;1.30;;;26.90;65.80;;;;;;7372947;19;20439;-44
2022/06/24 08:49:46;;;;;;;2.20;1.30;;;26.90;59.90;;;;;;7375545;19;20384;-44
2022/06/24 08:52:22;;;;;;;3.03;1.70;;;27.10;64.70;;;;;;7377000;19;20376;-44
2022/06/24 08:54:55;;;;;;;1.60;1.20;;;27.10;61.70;;;;;;7375620;19;20480;-44
2022/06/24 08:57:24;;;;;;;2.63;1.80;;;27.10;58.60;;;;;;7379197;19;20483;-45
2022/06/24 08:59:54;;;;;;;3.80;1.70;;;26.90;60.90;;;;;;7379629;19;20384;-43
2022/06/24 09:02:23;;;;;;;4.17;1.70;;;26.90;61.40;;;;;;7379988;19;20372;-43
2022/06/24 09:04:52;;;;;;;2.10;1.73;;;26.20;63.60;;;;;;7373921;19;20408;-44
2022/06/24 09:07:27;;;;;;;3.37;1.60;;;26.30;63.30;;;;;;7375839;19;20462;-44
2022/06/24 09:10:04;;;;;;;2.30;1.70;;;26.50;64.80;;;;;;7380636;19;20463;-44
2022/06/24 09:12:39;;;;;;;2.53;1.30;;;26.60;62.30;;;;;;7377949;19;20384;-44
2022/06/24 09:15:11;;;;;;;3.10;1.77;;;26.90;63.20;;;;;;7376664;19;20402;-44
2022/06/24 09:17:46;;;;;;;2.50;1.47;;;27.10;61.40;;;;;;7370742;19;20796;-44
2022/06/24 09:20:21;;;;;;;2.73;1.33;;;27.30;61.30;;;;;;7380085;19;20380;-44
2022/06/24 09:22:51;;;;;;;2.70;1.70;;;27.50;60.90;;;;;;7377072;19;20908;-44
2022/06/24 09:25:23;;;;;;;4.13;2.13;;;27.50;59.80;;;;;;7373901;19;20396;-44
2022/06/24 09:27:52;;;;;;;2.13;1.63;;;27.70;58.90;;;;;;7377005;19;20368;-43
2022/06/24 09:30:22;;;;;;;2.23;1.60;;;27.90;58.10;;;;;;7377169;19;20408;-45
2022/06/24 09:32:52;;;;;;;2.33;1.57;;;27.90;57.60;;;;;;7373516;19;20376;-44
2022/06/24 09:35:22;;;;;;;3.93;1.40;;;27.40;56.90;;;;;;7377755;19;20376;-44
2022/06/24 09:37:54;;;;;;;1.97;1.50;;;27.40;59.30;;;;;;7380366;19;20380;-44
2022/06/24 09:40:28;;;;;;;3.23;1.87;;;27.70;59.90;;;;;;7378660;19;20376;-43
2022/06/24 09:43:01;;;;;;;3.73;1.63;;;27.90;57.80;;;;;;7380190;19;20380;-40
2022/06/24 09:45:46;;;;;;;3.63;1.60;;;28.20;57.70;;;;;;7372243;19;20949;-41
2022/06/24 09:48:29;;;;;;;3.27;1.33;;;28.50;56.70;;;;;;7379375;19;20399;-38
2022/06/24 09:51:00;;;;;;;2.40;1.80;;;28.60;56.00;;;;;;7377149;19;20387;-39
2022/06/24 09:53:32;;;;;;;3.70;1.50;;;28.40;55.60;;;;;;7380101;19;21064;-39
2022/06/24 09:56:07;;;;;;;6.27;1.70;;;28.40;55.10;;;;;;7376600;19;20416;-39
2022/06/24 09:58:37;;;;;;;3.10;1.67;;;28.40;56.20;;;;;;7370907;19;20372;-39
2022/06/24 10:01:04;;;;;;;2.90;1.53;;;28.30;56.10;;;;;;7377942;19;20792;-39
2022/06/24 10:03:37;;;;;;;3.10;1.83;;;27.80;54.80;;;;;;7377606;19;20957;-39
2022/06/24 10:06:08;;;;;;;5.23;1.63;;;27.30;57.80;;;;;;7379058;19;20380;-39
2022/06/24 10:08:43;;;;;;;1.57;1.30;;;27.60;57.00;;;;;;7376979;19;20388;-40
2022/06/24 10:11:17;;;;;;;3.60;2.10;;;27.90;57.60;;;;;;7377539;19;20408;-39
2022/06/24 10:13:49;;;;;;;3.73;1.30;;;28.10;56.90;;;;;;7371425;19;21160;-39
2022/06/24 10:16:18;;;;;;;2.90;1.50;;;28.10;56.70;;;;;;7379055;19;20401;-39
2022/06/24 10:18:51;;;;;;;2.97;2.20;;;28.20;56.80;;;;;;7370188;19;20695;-39
2022/06/24 10:21:22;;;;;;;5.40;1.40;;;28.60;56.10;;;;;;7376662;19;20827;-40
2022/06/24 10:23:56;;;;;;;5.23;1.87;;;28.90;55.50;;;;;;7374380;19;20396;-39
2022/06/24 10:26:29;;;;;;;2.37;1.80;;;28.70;54.80;;;;;;7374063;19;20860;-39
2022/06/24 10:29:30;;;;;;;4.83;1.87;;;28.70;55.30;;;;;;7378105;19;20415;-40
2022/06/24 10:32:06;;;;;;;3.00;1.40;;;28.80;54.80;;;;;;7373478;19;21009;-40
2022/06/24 10:34:43;;;;;;;7.67;2.03;;;28.80;55.20;;;;;;7375732;19;20452;-40
2022/06/24 10:37:29;;;;;;;3.80;1.97;;;28.80;54.90;;;;;;7377262;19;20392;-40
2022/06/24 10:40:01;;;;;;;3.67;1.70;;;28.90;55.20;;;;;;7375036;19;20391;-40
2022/06/24 10:42:33;;;;;;;4.60;2.70;;;28.60;55.50;;;;;;7370187;19;20370;-38
2022/06/24 10:45:05;;;;;;;3.60;2.53;;;28.40;57.70;;;;;;7375508;19;20412;-39
2022/06/24 10:47:42;;;;;;;4.33;1.93;;;28.40;58.50;;;;;;7370339;19;20408;-40
2022/06/24 10:50:20;;;;;;;6.00;2.70;;;28.40;58.20;;;;;;7377266;19;20384;-39
2022/06/24 10:53:00;;;;;;;5.20;3.20;;;28.50;57.80;;;;;;7373958;19;20428;-40
2022/06/24 10:55:34;;;;;;;5.03;2.50;;;28.80;57.50;;;;;;7374059;19;20408;-40
2022/06/24 10:58:10;;;;;;;5.40;2.10;;;28.80;58.90;;;;;;7374254;19;20391;-40
2022/06/24 11:00:54;;;;;;;47.57;9.77;;;28.80;58.50;;;;;;7376926;19;20423;-38
2022/06/24 11:03:38;;;;;;;2.63;2.40;;;28.90;58.50;;;;;;7375364;19;20368;-40
2022/06/24 11:06:12;;;;;;;3.40;2.33;;;28.40;58.70;;;;;;7375570;19;20364;-40
2022/06/24 11:08:41;;;;;;;4.67;2.30;;;27.80;61.10;;;;;;7373171;19;20382;-40
2022/06/24 11:11:24;;;;;;;3.90;2.57;;;27.30;62.80;;;;;;7374288;19;20383;-40
2022/06/24 11:13:56;;;;;;;2.47;2.13;;;27.50;61.80;;;;;;7375660;19;21246;-40
2022/06/24 11:16:29;;;;;;;3.57;2.90;;;27.30;62.70;;;;;;7371878;19;20416;-39
2022/06/24 11:19:00;;;;;;;4.83;2.00;;;27.40;62.60;;;;;;7376048;19;20384;-39
2022/06/24 11:21:32;;;;;;;6.63;2.80;;;27.60;62.90;;;;;;7374515;19;20977;-39
2022/06/24 11:24:03;;;;;;;3.53;2.10;;;27.70;63.20;;;;;;7370926;19;20395;-39
2022/06/24 11:26:33;;;;;;;8.57;2.30;;;27.60;64.00;;;;;;7349131;19;20369;-39
2022/06/24 11:29:07;;;;;;;3.80;2.43;;;27.50;64.00;;;;;;7363620;19;20460;-39
2022/06/24 11:31:37;;;;;;;8.10;2.97;;;27.50;64.00;;;;;;7351707;19;20842;-41
2022/06/24 11:34:13;;;;;;;4.13;2.50;;;27.30;64.50;;;;;;7341355;19;20422;-39
2022/06/24 11:36:44;;;;;;;3.10;1.87;;;27.00;65.80;;;;;;7348914;19;20371;-40
2022/06/24 11:39:14;;;;;;;3.77;2.80;;;27.00;67.10;;;;;;7351219;19;20543;-41
2022/06/24 11:41:50;;;;;;;3.30;2.70;;;27.10;66.80;;;;;;7341337;19;20408;-40
2022/06/24 11:44:33;;;;;;;4.83;2.30;;;27.10;66.20;;;;;;7353449;19;20410;-41
2022/06/24 11:47:03;;;;;;;3.13;2.30;;;27.20;65.50;;;;;;7344244;19;21105;-40
2022/06/24 11:49:34;;;;;;;7.27;2.87;;;27.30;65.50;;;;;;7352785;19;21178;-40
2022/06/24 11:52:07;;;;;;;4.37;2.80;;;27.20;62.50;;;;;;7343755;19;20382;-40
2022/06/24 11:54:37;;;;;;;2.00;1.80;;;27.20;64.70;;;;;;7370772;19;20372;-40
2022/06/24 11:57:10;;;;;;;3.60;1.93;;;27.30;83.30;;;;;;7348105;19;20435;-41
2022/06/24 11:59:43;;;;;;;6.03;2.37;;;27.20;63.00;;;;;;7355147;19;20484;-40
2022/06/24 12:02:14;;;;;;;6.37;2.10;;;27.10;64.00;;;;;;7350626;19;21414;-40
2022/06/24 12:04:50;;;;;;;3.30;1.97;;;27.10;61.40;;;;;;7349341;19;20725;-40
2022/06/24 12:07:22;;;;;;;4.00;2.03;;;27.00;61.80;;;;;;7358034;19;20408;-40
2022/06/24 12:09:52;;;;;;;4.30;2.13;;;27.00;59.50;;;;;;7364766;19;20387;-40
2022/06/24 12:12:22;;;;;;;8.57;2.17;;;27.20;63.10;;;;;;7377157;19;20385;-40
2022/06/24 12:14:59;;;;;;;4.30;1.57;;;27.30;59.80;;;;;;7380857;19;20504;-40
2022/06/24 12:17:28;;;;;;;3.43;2.10;;;27.40;59.60;;;;;;7380968;19;20398;-43
2022/06/24 12:20:04;;;;;;;2.30;1.57;;;27.40;61.60;;;;;;7373372;19;20380;-44
2022/06/24 12:22:33;;;;;;;2.90;1.67;;;27.40;60.90;;;;;;7381222;19;20376;-43
2022/06/24 12:25:05;;;;;;;3.00;1.60;;;27.50;60.50;;;;;;7375145;19;21470;-43
2022/06/24 12:27:36;;;;;;;2.33;1.60;;;27.50;58.00;;;;;;7380654;19;20835;-45
2022/06/24 12:30:09;;;;;;;2.23;1.57;;;27.50;59.40;;;;;;7379236;19;20387;-44
2022/06/24 12:32:52;;;;;;;4.87;1.60;;;27.50;58.10;;;;;;7373756;19;20388;-44
2022/06/24 12:35:34;;;;;;;3.13;1.30;;;27.30;57.70;;;;;;7381349;19;20372;-43
2022/06/24 12:38:06;;;;;;;2.17;1.40;;;27.20;58.00;;;;;;7377820;19;20372;-44
2022/06/24 12:40:35;;;;;;;3.20;1.50;;;27.10;58.80;;;;;;7382416;19;20372;-43
2022/06/24 12:43:14;;;;;;;2.07;1.40;;;27.20;58.50;;;;;;7355876;19;20893;-43
2022/06/24 12:45:46;;;;;;;2.37;1.53;;;27.30;60.10;;;;;;7376359;19;20376;-44
2022/06/24 12:51:11;;;;;;;3.60;1.33;;;27.20;57.50;;;;;;7362031;19;20372;-41
2022/06/24 12:53:41;;;;;;;2.87;1.53;;;27.30;59.00;;;;;;7372668;19;20383;-40
2022/06/24 12:56:10;;;;;;;2.27;2.00;;;27.30;60.80;;;;;;7363414;19;20379;-40
2022/06/24 12:58:40;;;;;;;6.40;2.40;;;27.20;63.90;;;;;;7367650;19;20411;-40
2022/06/24 13:01:12;;;;;;;7.70;2.27;;;26.90;67.80;;;;;;7360510;19;20480;-43
2022/06/24 13:03:41;;;;;;;5.10;1.90;;;26.70;72.50;;;;;;7377233;19;20910;-44
2022/06/24 13:06:14;;;;;;;4.40;2.30;;;26.50;74.30;;;;;;7380326;19;20399;-44
2022/06/24 13:08:44;;;;;;;3.57;2.33;;;26.60;77.20;;;;;;7381449;19;20368;-44
2022/06/24 13:11:13;;;;;;;4.63;1.97;;;26.40;78.30;;;;;;7357981;19;20889;-44
2022/06/24 13:13:43;;;;;;;5.10;2.20;;;26.10;79.40;;;;;;7367890;19;20422;-44
2022/06/24 13:16:15;;;;;;;7.30;1.70;;;26.00;83.10;;;;;;7378455;19;20917;-44
2022/06/24 13:18:44;;;;;;;2.83;1.63;;;25.50;85.80;;;;;;7348831;19;20480;-44
2022/06/24 13:21:14;;;;;;;3.20;2.43;;;24.80;94.00;;;;;;7378169;19;20388;-43
2022/06/24 13:23:43;;;;;;;5.87;1.90;;;24.30;98.10;;;;;;7375082;19;21084;-43
2022/06/24 13:26:15;;;;;;;4.27;2.30;;;24.10;99.90;;;;;;7380717;19;20961;-43